CVLO2: Caney R. Collinsville,Ok

                                SHEF ID:       CVLO2     Caney River near Collinsville, O
STATION TYPE:
Regulating: Stage = 26.00, Flow = 13763

PRECIP STAGE RIV-FLOW BAT-LOAD
in ft cfs volt
Ccp-Rev Ccp-Rev Ccp-Rev Ccp-Rev
(America/Chicago)
03/20 00:00 0.00 7.81 409 12.48
03/20 01:00 0.00 7.76 390 12.47
03/20 02:00 0.00 7.71 371 12.46
03/20 03:00 0.00 7.66 353 12.45
03/20 04:00 0.00 7.62 339 12.44
03/20 05:00 0.00 7.57 321 12.80
03/20 06:00 0.00 7.53 307 12.42
03/20 07:00 0.00 7.49 293 12.40
03/20 08:00 0.00 7.45 280 12.39
03/20 09:00 0.00 7.40 263 12.43
03/20 10:00 0.00 7.36 250 12.50
03/20 11:00 0.00 7.32 237 12.77
03/20 12:00 0.00 7.29 226 12.77
03/20 13:00 0.00 7.26 216 12.72
03/20 14:00 0.00 7.21 200 12.72
03/20 15:00 0.00 7.16 184 12.71
03/20 16:00 0.00 7.16 184 12.71
03/20 17:00 0.00 7.12 172 12.73
03/20 18:00 0.00 7.10 166 12.70
03/20 19:00 0.00 7.10 166 12.63
03/20 20:00 0.00 7.08 159 12.48
03/20 21:00 0.00 7.07 155 12.46
03/20 22:00 0.00 7.05 148 12.47
03/20 23:00 0.00 7.03 141 12.47
Data processed at Sat 21Mar2026 04:44 GMT

NOTICE: If you are parsing this page

Please convert to using our Data API. Starting early 2026 we will be migrating to: https://water.usace.army.mil with modern pages rendered in JavaScript. When this migration completes you will no longer be able to scrape this page! CWMSDataAPI (CDA)

Timeseries IDs (TSIDs)

TSIDs used from left to right in the data table
COLL.Precip-Inc.Total.1Hour.1Hour.Ccp-Rev
COLL.Stage.Inst.1Hour.0.Ccp-Rev
COLL.Flow.Inst.1Hour.0.Ccp-Rev
COLL.Volt-Battery Load.Inst.1Hour.0.Ccp-Rev

                            

All information presented herein is the property of the government of the United States of America and may be revised or deleted at any time without prior notice. Dissemination of this information without the expressed written consent of the Public Affairs Office, Tulsa District U.S. Army Corps of Engineers is strictly prohibited. These data are gathered electronically and, as presented, have NOT undergone any form of quality control. These data are NOT guaranteed to be valid or correct.